Time;durP1;ratioP1;P1;durP2;ratioP2;P2;SDS_P1;SDS_P2;PMS_P1;PMS_P2;Temp;Humidity;BMP_temperature;BMP_pressure;BME280_temperature;BME280_humidity;BME280_pressure;Samples;Min_cycle;Max_cycle;Signal;HPM_P1;HPM_P2
2021/06/04 00:00:06;;;;;;;11.35;9.25;;;19.5;99.9;;;;;;;;;
2021/06/04 00:01:02;;;;;;;11.35;9.25;;;19.5;99.9;;;;;;;;;
2021/06/04 00:02:02;;;;;;;11.15;9.35;;;19.5;99.9;;;;;;;;;
2021/06/04 00:03:02;;;;;;;11.57;9.68;;;19.5;99.9;;;;;;;;;
2021/06/04 00:03:16;;;;;;;10.65;9.25;;;19.5;99.9;;;;;;;;;
2021/06/04 00:04:02;;;;;;;10.65;9.25;;;19.5;99.9;;;;;;;;;
2021/06/04 00:04:12;;;;;;;10.9;9.85;;;19.4;99.9;;;;;;;;;
2021/06/04 00:05:02;;;;;;;10.9;9.85;;;19.4;99.9;;;;;;;;;
2021/06/04 00:05:19;;;;;;;13.35;10.55;;;19.4;99.9;;;;;;;;;
2021/06/04 00:05:29;;;;;;;13.35;10.55;;;19.4;99.9;;;;;;;;;
2021/06/04 00:06:02;;;;;;;13.35;10.55;;;19.4;99.9;;;;;;;;;
2021/06/04 00:06:15;;;;;;;10.65;9.55;;;19.4;99.9;;;;;;;;;
2021/06/04 00:06:25;;;;;;;10.65;9.55;;;19.4;99.9;;;;;;;;;
2021/06/04 00:07:03;;;;;;;10.65;9.55;;;19.4;99.9;;;;;;;;;
2021/06/04 00:07:17;;;;;;;11.07;9.68;;;19.4;99.9;;;;;;;;;
2021/06/04 00:07:32;;;;;;;11.07;9.68;;;19.4;99.9;;;;;;;;;
2021/06/04 00:07:47;;;;;;;11.07;9.68;;;19.4;99.9;;;;;;;;;
2021/06/04 00:08:02;;;;;;;11.07;9.68;;;19.4;99.9;;;;;;;;;
2021/06/04 00:08:18;;;;;;;11.63;9.8;;;19.4;99.9;;;;;;;;;
2021/06/04 00:08:28;;;;;;;11.63;9.8;;;19.4;99.9;;;;;;;;;
2021/06/04 00:08:39;;;;;;;11.63;9.8;;;19.4;99.9;;;;;;;;;
2021/06/04 00:09:02;;;;;;;11.63;9.8;;;19.4;99.9;;;;;;;;;
2021/06/04 00:09:14;;;;;;;13.45;10.43;;;19.4;99.9;;;;;;;;;
2021/06/04 00:09:30;;;;;;;13.45;10.43;;;19.4;99.9;;;;;;;;;
2021/06/04 00:09:45;;;;;;;13.45;10.43;;;19.4;99.9;;;;;;;;;
2021/06/04 00:10:01;;;;;;;13.45;10.43;;;19.4;99.9;;;;;;;;;
2021/06/04 00:10:01;;;;;;;13.45;10.43;;;19.4;99.9;;;;;;;;;
2021/06/04 00:10:16;;;;;;;11.13;9.98;;;19.5;99.9;;;;;;;;;
2021/06/04 00:10:31;;;;;;;11.13;9.98;;;19.5;99.9;;;;;;;;;
2021/06/04 00:10:41;;;;;;;11.13;9.98;;;19.5;99.9;;;;;;;;;
2021/06/04 00:10:52;;;;;;;11.13;9.98;;;19.5;99.9;;;;;;;;;
2021/06/04 00:11:01;;;;;;;11.13;9.98;;;19.5;99.9;;;;;;;;;
2021/06/04 00:11:17;;;;;;;11.65;9.95;;;19.4;99.9;;;;;;;;;
2021/06/04 00:11:28;;;;;;;11.65;9.95;;;19.4;99.9;;;;;;;;;
2021/06/04 00:11:43;;;;;;;11.65;9.95;;;19.4;99.9;;;;;;;;;
2021/06/04 00:11:58;;;;;;;11.65;9.95;;;19.4;99.9;;;;;;;;;
2021/06/04 00:12:01;;;;;;;11.65;9.95;;;19.4;99.9;;;;;;;;;
2021/06/04 00:12:14;;;;;;;12.55;11.15;;;19.5;99.9;;;;;;;;;
2021/06/04 00:12:14;;;;;;;12.55;11.15;;;19.5;99.9;;;;;;;;;
2021/06/04 00:12:29;;;;;;;12.55;11.15;;;19.5;99.9;;;;;;;;;
2021/06/04 00:12:44;;;;;;;12.55;11.15;;;19.5;99.9;;;;;;;;;
2021/06/04 00:12:55;;;;;;;12.55;11.15;;;19.5;99.9;;;;;;;;;
2021/06/04 00:13:01;;;;;;;12.55;11.15;;;19.5;99.9;;;;;;;;;
2021/06/04 00:13:05;;;;;;;12.55;11.15;;;19.5;99.9;;;;;;;;;
2021/06/04 00:13:20;;;;;;;13;11.6;;;19.5;99.9;;;;;;;;;
2021/06/04 00:13:30;;;;;;;13;11.6;;;19.5;99.9;;;;;;;;;
2021/06/04 00:13:41;;;;;;;13;11.6;;;19.5;99.9;;;;;;;;;
2021/06/04 00:13:56;;;;;;;13;11.6;;;19.5;99.9;;;;;;;;;
2021/06/04 00:14:01;;;;;;;13;11.6;;;19.5;99.9;;;;;;;;;
2021/06/04 00:14:11;;;;;;;14.02;11.65;;;19.5;99.9;;;;;;;;;
2021/06/04 00:14:16;;;;;;;14.02;11.65;;;19.5;99.9;;;;;;;;;
2021/06/04 00:14:27;;;;;;;14.02;11.65;;;19.5;99.9;;;;;;;;;
2021/06/04 00:14:42;;;;;;;14.02;11.65;;;19.5;99.9;;;;;;;;;
2021/06/04 00:14:57;;;;;;;14.02;11.65;;;19.5;99.9;;;;;;;;;
2021/06/04 00:15:01;;;;;;;14.02;11.65;;;19.5;99.9;;;;;;;;;
2021/06/04 00:15:23;;;;;;;15.8;11.43;;;19.5;99.9;;;;;;;;;
2021/06/04 00:15:33;;;;;;;15.8;11.43;;;19.5;99.9;;;;;;;;;
2021/06/04 00:15:38;;;;;;;15.8;11.43;;;19.5;99.9;;;;;;;;;
2021/06/04 00:15:44;;;;;;;15.8;11.43;;;19.5;99.9;;;;;;;;;
2021/06/04 00:15:54;;;;;;;15.8;11.43;;;19.5;99.9;;;;;;;;;
2021/06/04 00:16:02;;;;;;;15.8;11.43;;;19.5;99.9;;;;;;;;;
2021/06/04 00:16:09;;;;;;;15.8;11.43;;;19.5;99.9;;;;;;;;;
2021/06/04 00:16:14;;;;;;;12.55;11.35;;;19.5;99.9;;;;;;;;;
2021/06/04 00:16:35;;;;;;;12.55;11.35;;;19.5;99.9;;;;;;;;;
2021/06/04 00:16:40;;;;;;;12.55;11.35;;;19.5;99.9;;;;;;;;;
2021/06/04 00:16:55;;;;;;;12.55;11.35;;;19.5;99.9;;;;;;;;;
2021/06/04 00:17:02;;;;;;;12.55;11.35;;;19.5;99.9;;;;;;;;;
2021/06/04 00:17:11;;;;;;;12.55;11.35;;;19.5;99.9;;;;;;;;;
2021/06/04 00:17:23;;;;;;;13.05;11.73;;;19.5;99.9;;;;;;;;;
2021/06/04 00:17:46;;;;;;;13.05;11.73;;;19.5;99.9;;;;;;;;;
2021/06/04 00:17:52;;;;;;;13.05;11.73;;;19.5;99.9;;;;;;;;;
2021/06/04 00:17:57;;;;;;;13.05;11.73;;;19.5;99.9;;;;;;;;;
2021/06/04 00:18:02;;;;;;;13.05;11.73;;;19.5;99.9;;;;;;;;;
2021/06/04 00:18:07;;;;;;;13.05;11.73;;;19.5;99.9;;;;;;;;;
2021/06/04 00:18:17;;;;;;;12.93;11.63;;;19.6;99.9;;;;;;;;;
2021/06/04 00:18:27;;;;;;;12.93;11.63;;;19.6;99.9;;;;;;;;;
2021/06/04 00:18:48;;;;;;;12.93;11.63;;;19.6;99.9;;;;;;;;;
2021/06/04 00:18:53;;;;;;;12.93;11.63;;;19.6;99.9;;;;;;;;;
2021/06/04 00:19:02;;;;;;;12.93;11.63;;;19.6;99.9;;;;;;;;;
2021/06/04 00:19:09;;;;;;;12.93;11.63;;;19.6;99.9;;;;;;;;;
2021/06/04 00:19:19;;;;;;;14.6;12.68;;;19.6;99.9;;;;;;;;;
2021/06/04 00:19:34;;;;;;;14.6;12.68;;;19.6;99.9;;;;;;;;;
2021/06/04 00:19:59;;;;;;;14.6;12.68;;;19.6;99.9;;;;;;;;;
2021/06/04 00:20:02;;;;;;;14.6;12.68;;;19.6;99.9;;;;;;;;;
2021/06/04 00:20:05;;;;;;;14.6;12.68;;;19.6;99.9;;;;;;;;;
2021/06/04 00:20:10;;;;;;;14.6;12.68;;;19.6;99.9;;;;;;;;;
2021/06/04 00:20:15;;;;;;;14.48;11.57;;;19.6;99.9;;;;;;;;;
2021/06/04 00:20:30;;;;;;;14.48;11.57;;;19.6;99.9;;;;;;;;;
2021/06/04 00:20:40;;;;;;;14.48;11.57;;;19.6;99.9;;;;;;;;;
2021/06/04 00:21:01;;;;;;;14.48;11.57;;;19.6;99.9;;;;;;;;;
2021/06/04 00:21:02;;;;;;;14.48;11.57;;;19.6;99.9;;;;;;;;;
2021/06/04 00:21:06;;;;;;;14.48;11.57;;;19.6;99.9;;;;;;;;;
2021/06/04 00:21:16;;;;;;;13.45;12.05;;;19.6;99.9;;;;;;;;;
2021/06/04 00:21:32;;;;;;;13.45;12.05;;;19.6;99.9;;;;;;;;;
2021/06/04 00:21:47;;;;;;;13.45;12.05;;;19.6;99.9;;;;;;;;;
2021/06/04 00:22:02;;;;;;;13.45;12.05;;;19.6;99.9;;;;;;;;;
2021/06/04 00:22:13;;;;;;;13.95;12.4;;;19.7;99.9;;;;;;;;;
2021/06/04 00:22:18;;;;;;;13.95;12.4;;;19.7;99.9;;;;;;;;;
2021/06/04 00:22:23;;;;;;;13.95;12.4;;;19.7;99.9;;;;;;;;;
2021/06/04 00:22:33;;;;;;;13.95;12.4;;;19.7;99.9;;;;;;;;;
2021/06/04 00:22:43;;;;;;;13.95;12.4;;;19.7;99.9;;;;;;;;;
2021/06/04 00:22:54;;;;;;;13.95;12.4;;;19.7;99.9;;;;;;;;;
2021/06/04 00:23:02;;;;;;;13.95;12.4;;;19.7;99.9;;;;;;;;;
2021/06/04 00:23:14;;;;;;;14.05;11.93;;;19.7;99.9;;;;;;;;;
2021/06/04 00:23:14;;;;;;;14.05;11.93;;;19.7;99.9;;;;;;;;;
2021/06/04 00:23:30;;;;;;;14.05;11.93;;;19.7;99.9;;;;;;;;;
2021/06/04 00:23:50;;;;;;;14.05;11.93;;;19.7;99.9;;;;;;;;;
2021/06/04 00:24:00;;;;;;;14.05;11.93;;;19.7;99.9;;;;;;;;;
2021/06/04 00:24:02;;;;;;;14.05;11.93;;;19.7;99.9;;;;;;;;;
2021/06/04 00:24:16;;;;;;;14;12.5;;;19.7;99.9;;;;;;;;;
2021/06/04 00:24:26;;;;;;;14;12.5;;;19.7;99.9;;;;;;;;;
2021/06/04 00:24:31;;;;;;;14;12.5;;;19.7;99.9;;;;;;;;;
2021/06/04 00:24:46;;;;;;;14;12.5;;;19.7;99.9;;;;;;;;;
2021/06/04 00:24:57;;;;;;;14;12.5;;;19.7;99.9;;;;;;;;;
2021/06/04 00:25:02;;;;;;;14;12.5;;;19.7;99.9;;;;;;;;;
2021/06/04 00:25:07;;;;;;;14;12.5;;;19.7;99.9;;;;;;;;;
2021/06/04 00:25:12;;;;;;;14;12.5;;;19.7;99.9;;;;;;;;;
2021/06/04 00:25:27;;;;;;;16.42;12.45;;;19.7;99.9;;;;;;;;;
2021/06/04 00:25:43;;;;;;;16.42;12.45;;;19.7;99.9;;;;;;;;;
2021/06/04 00:26:02;;;;;;;16.42;12.45;;;19.7;99.9;;;;;;;;;
2021/06/04 00:26:03;;;;;;;16.42;12.45;;;19.7;99.9;;;;;;;;;
2021/06/04 00:26:14;;;;;;;15;13.07;;;19.7;99.9;;;;;;;;;
2021/06/04 00:26:14;;;;;;;15;13.07;;;19.7;99.9;;;;;;;;;
2021/06/04 00:26:29;;;;;;;15;13.07;;;19.7;99.9;;;;;;;;;
2021/06/04 00:26:44;;;;;;;15;13.07;;;19.7;99.9;;;;;;;;;
2021/06/04 00:26:59;;;;;;;15;13.07;;;19.7;99.9;;;;;;;;;
2021/06/04 00:27:01;;;;;;;15;13.07;;;19.7;99.9;;;;;;;;;
2021/06/04 00:27:10;;;;;;;15;13.07;;;19.7;99.9;;;;;;;;;
2021/06/04 00:27:15;;;;;;;13.7;12.23;;;19.7;99.9;;;;;;;;;
2021/06/04 00:27:25;;;;;;;13.7;12.23;;;19.7;99.9;;;;;;;;;
2021/06/04 00:27:40;;;;;;;13.7;12.23;;;19.7;99.9;;;;;;;;;
2021/06/04 00:27:56;;;;;;;13.7;12.23;;;19.7;99.9;;;;;;;;;
2021/06/04 00:28:01;;;;;;;13.7;12.23;;;19.7;99.9;;;;;;;;;
2021/06/04 00:28:16;;;;;;;14.45;12.57;;;19.7;99.9;;;;;;;;;
2021/06/04 00:28:16;;;;;;;14.45;12.57;;;19.7;99.9;;;;;;;;;
2021/06/04 00:28:27;;;;;;;14.45;12.57;;;19.7;99.9;;;;;;;;;
2021/06/04 00:28:42;;;;;;;14.45;12.57;;;19.7;99.9;;;;;;;;;
2021/06/04 00:28:57;;;;;;;14.45;12.57;;;19.7;99.9;;;;;;;;;
2021/06/04 00:29:02;;;;;;;14.45;12.57;;;19.7;99.9;;;;;;;;;
2021/06/04 00:29:13;;;;;;;14.45;12.57;;;19.7;99.9;;;;;;;;;
2021/06/04 00:29:13;;;;;;;14.45;12.57;;;19.7;99.9;;;;;;;;;
2021/06/04 00:29:28;;;;;;;13.93;12.52;;;19.7;99.9;;;;;;;;;
2021/06/04 00:29:38;;;;;;;13.93;12.52;;;19.7;99.9;;;;;;;;;
2021/06/04 00:29:53;;;;;;;13.93;12.52;;;19.7;99.9;;;;;;;;;
2021/06/04 00:30:01;;;;;;;13.93;12.52;;;19.7;99.9;;;;;;;;;
2021/06/04 00:30:09;;;;;;;13.93;12.52;;;19.7;99.9;;;;;;;;;
2021/06/04 00:30:14;;;;;;;13.93;12.52;;;19.7;99.9;;;;;;;;;
2021/06/04 00:30:29;;;;;;;15.63;12.52;;;19.8;99.9;;;;;;;;;
2021/06/04 00:30:40;;;;;;;15.63;12.52;;;19.8;99.9;;;;;;;;;
2021/06/04 00:30:55;;;;;;;15.63;12.52;;;19.8;99.9;;;;;;;;;
2021/06/04 00:31:02;;;;;;;15.63;12.52;;;19.8;99.9;;;;;;;;;
2021/06/04 00:31:10;;;;;;;15.63;12.52;;;19.8;99.9;;;;;;;;;
2021/06/04 00:31:15;;;;;;;14.88;12.88;;;19.8;99.9;;;;;;;;;
2021/06/04 00:31:26;;;;;;;14.88;12.88;;;19.8;99.9;;;;;;;;;
2021/06/04 00:31:41;;;;;;;14.88;12.88;;;19.8;99.9;;;;;;;;;
2021/06/04 00:31:51;;;;;;;14.88;12.88;;;19.8;99.9;;;;;;;;;
2021/06/04 00:32:02;;;;;;;14.88;12.88;;;19.8;99.9;;;;;;;;;
2021/06/04 00:32:07;;;;;;;14.88;12.88;;;19.8;99.9;;;;;;;;;
2021/06/04 00:32:17;;;;;;;14.27;12.77;;;19.8;99.9;;;;;;;;;
2021/06/04 00:32:27;;;;;;;14.27;12.77;;;19.8;99.9;;;;;;;;;
2021/06/04 00:32:42;;;;;;;14.27;12.77;;;19.8;99.9;;;;;;;;;
2021/06/04 00:32:53;;;;;;;14.27;12.77;;;19.8;99.9;;;;;;;;;
2021/06/04 00:33:02;;;;;;;14.27;12.77;;;19.8;99.9;;;;;;;;;
2021/06/04 00:33:08;;;;;;;14.27;12.77;;;19.8;99.9;;;;;;;;;
2021/06/04 00:33:13;;;;;;;14.27;12.77;;;19.8;99.9;;;;;;;;;
2021/06/04 00:33:28;;;;;;;14.27;12.35;;;19.8;99.9;;;;;;;;;
2021/06/04 00:33:39;;;;;;;14.27;12.35;;;19.8;99.9;;;;;;;;;
2021/06/04 00:33:54;;;;;;;14.27;12.35;;;19.8;99.9;;;;;;;;;
2021/06/04 00:34:02;;;;;;;14.27;12.35;;;19.8;99.9;;;;;;;;;
2021/06/04 00:34:04;;;;;;;14.27;12.35;;;19.8;99.9;;;;;;;;;
2021/06/04 00:34:15;;;;;;;14.27;12.35;;;19.8;99.9;;;;;;;;;
2021/06/04 00:34:30;;;;;;;15.9;13.68;;;19.8;99.9;;;;;;;;;
2021/06/04 00:34:40;;;;;;;15.9;13.68;;;19.8;99.9;;;;;;;;;
2021/06/04 00:34:55;;;;;;;15.9;13.68;;;19.8;99.9;;;;;;;;;
2021/06/04 00:35:02;;;;;;;15.9;13.68;;;19.8;99.9;;;;;;;;;
2021/06/04 00:35:06;;;;;;;15.9;13.68;;;19.8;99.9;;;;;;;;;
2021/06/04 00:35:16;;;;;;;16.7;14.77;;;19.8;99.9;;;;;;;;;
2021/06/04 00:35:26;;;;;;;16.7;14.77;;;19.8;99.9;;;;;;;;;
2021/06/04 00:35:42;;;;;;;16.7;14.77;;;19.8;99.9;;;;;;;;;
2021/06/04 00:35:52;;;;;;;16.7;14.77;;;19.8;99.9;;;;;;;;;
2021/06/04 00:36:02;;;;;;;16.7;14.77;;;19.8;99.9;;;;;;;;;
2021/06/04 00:36:07;;;;;;;16.7;14.77;;;19.8;99.9;;;;;;;;;
2021/06/04 00:36:12;;;;;;;16.7;14.77;;;19.8;99.9;;;;;;;;;
2021/06/04 00:36:28;;;;;;;16.88;13.77;;;19.8;99.9;;;;;;;;;
2021/06/04 00:36:43;;;;;;;16.88;13.77;;;19.8;99.9;;;;;;;;;
2021/06/04 00:36:53;;;;;;;16.88;13.77;;;19.8;99.9;;;;;;;;;
2021/06/04 00:37:02;;;;;;;16.88;13.77;;;19.8;99.9;;;;;;;;;
2021/06/04 00:37:09;;;;;;;16.88;13.77;;;19.8;99.9;;;;;;;;;
2021/06/04 00:37:14;;;;;;;16.88;13.77;;;19.8;99.9;;;;;;;;;
2021/06/04 00:37:29;;;;;;;16.58;14.23;;;19.8;99.9;;;;;;;;;
2021/06/04 00:37:39;;;;;;;16.58;14.23;;;19.8;99.9;;;;;;;;;
2021/06/04 00:37:55;;;;;;;16.58;14.23;;;19.8;99.9;;;;;;;;;
2021/06/04 00:38:01;;;;;;;16.58;14.23;;;19.8;99.9;;;;;;;;;
2021/06/04 00:38:05;;;;;;;16.58;14.23;;;19.8;99.9;;;;;;;;;
2021/06/04 00:38:15;;;;;;;16.58;14.23;;;19.8;99.9;;;;;;;;;
2021/06/04 00:38:25;;;;;;;17.58;15.18;;;19.8;99.9;;;;;;;;;
2021/06/04 00:38:41;;;;;;;17.58;15.18;;;19.8;99.9;;;;;;;;;
2021/06/04 00:38:56;;;;;;;17.58;15.18;;;19.8;99.9;;;;;;;;;
2021/06/04 00:39:02;;;;;;;17.58;15.18;;;19.8;99.9;;;;;;;;;
2021/06/04 00:39:07;;;;;;;17.58;15.18;;;19.8;99.9;;;;;;;;;
2021/06/04 00:39:17;;;;;;;17.58;15.18;;;19.8;99.9;;;;;;;;;
2021/06/04 00:39:27;;;;;;;16.13;14.45;;;19.9;99.9;;;;;;;;;
2021/06/04 00:39:42;;;;;;;16.13;14.45;;;19.9;99.9;;;;;;;;;
2021/06/04 00:39:53;;;;;;;16.13;14.45;;;19.9;99.9;;;;;;;;;
2021/06/04 00:40:02;;;;;;;16.13;14.45;;;19.9;99.9;;;;;;;;;
2021/06/04 00:40:08;;;;;;;16.13;14.45;;;19.9;99.9;;;;;;;;;
2021/06/04 00:40:13;;;;;;;16.13;14.45;;;19.9;99.9;;;;;;;;;
2021/06/04 00:40:28;;;;;;;15.75;14.15;;;19.9;99.9;;;;;;;;;
2021/06/04 00:40:39;;;;;;;15.75;14.15;;;19.9;99.9;;;;;;;;;
2021/06/04 00:40:54;;;;;;;15.75;14.15;;;19.9;99.9;;;;;;;;;
2021/06/04 00:41:02;;;;;;;15.75;14.15;;;19.9;99.9;;;;;;;;;
2021/06/04 00:41:09;;;;;;;15.75;14.15;;;19.9;99.9;;;;;;;;;
2021/06/04 00:41:14;;;;;;;15.75;14.15;;;19.9;99.9;;;;;;;;;
2021/06/04 00:41:30;;;;;;;16.45;14.32;;;19.9;99.9;;;;;;;;;
2021/06/04 00:41:45;;;;;;;16.45;14.32;;;19.9;99.9;;;;;;;;;
2021/06/04 00:41:55;;;;;;;16.45;14.32;;;19.9;99.9;;;;;;;;;
2021/06/04 00:42:02;;;;;;;16.45;14.32;;;19.9;99.9;;;;;;;;;
2021/06/04 00:42:06;;;;;;;16.45;14.32;;;19.9;99.9;;;;;;;;;
2021/06/04 00:42:16;;;;;;;16.45;14.32;;;19.9;99.9;;;;;;;;;
2021/06/04 00:42:26;;;;;;;16.73;15.13;;;19.8;99.9;;;;;;;;;
2021/06/04 00:42:41;;;;;;;16.73;15.13;;;19.8;99.9;;;;;;;;;
2021/06/04 00:42:52;;;;;;;16.73;15.13;;;19.8;99.9;;;;;;;;;
2021/06/04 00:43:01;;;;;;;16.73;15.13;;;19.8;99.9;;;;;;;;;
2021/06/04 00:43:07;;;;;;;16.73;15.13;;;19.8;99.9;;;;;;;;;
2021/06/04 00:43:17;;;;;;;16.73;15.13;;;19.8;99.9;;;;;;;;;
2021/06/04 00:43:28;;;;;;;17.08;15.27;;;19.8;99.9;;;;;;;;;
2021/06/04 00:43:43;;;;;;;17.08;15.27;;;19.8;99.9;;;;;;;;;
2021/06/04 00:43:58;;;;;;;17.08;15.27;;;19.8;99.9;;;;;;;;;
2021/06/04 00:44:02;;;;;;;17.08;15.27;;;19.8;99.9;;;;;;;;;
2021/06/04 00:44:08;;;;;;;17.08;15.27;;;19.8;99.9;;;;;;;;;
2021/06/04 00:44:19;;;;;;;18.42;16.42;;;19.8;99.9;;;;;;;;;
2021/06/04 00:44:29;;;;;;;18.42;16.42;;;19.8;99.9;;;;;;;;;
2021/06/04 00:44:39;;;;;;;18.42;16.42;;;19.8;99.9;;;;;;;;;
2021/06/04 00:44:55;;;;;;;18.42;16.42;;;19.8;99.9;;;;;;;;;
2021/06/04 00:45:01;;;;;;;18.42;16.42;;;19.8;99.9;;;;;;;;;
2021/06/04 00:45:05;;;;;;;18.42;16.42;;;19.8;99.9;;;;;;;;;
2021/06/04 00:45:16;;;;;;;18.42;16.42;;;19.8;99.9;;;;;;;;;
2021/06/04 00:45:30;;;;;;;18.3;16.4;;;19.8;99.9;;;;;;;;;
2021/06/04 00:45:41;;;;;;;18.3;16.4;;;19.8;99.9;;;;;;;;;
2021/06/04 00:45:56;;;;;;;18.3;16.4;;;19.8;99.9;;;;;;;;;
2021/06/04 00:46:06;;;;;;;18.3;16.4;;;19.8;99.9;;;;;;;;;
2021/06/04 00:46:11;;;;;;;18.3;16.4;;;19.8;99.9;;;;;;;;;
2021/06/04 00:46:17;;;;;;;18.3;16.4;;;19.8;99.9;;;;;;;;;
2021/06/04 00:46:32;;;;;;;19.13;16.02;;;19.7;99.9;;;;;;;;;
2021/06/04 00:46:42;;;;;;;19.13;16.02;;;19.7;99.9;;;;;;;;;
2021/06/04 00:46:52;;;;;;;19.13;16.02;;;19.7;99.9;;;;;;;;;
2021/06/04 00:47:02;;;;;;;19.13;16.02;;;19.7;99.9;;;;;;;;;
2021/06/04 00:47:08;;;;;;;19.13;16.02;;;19.7;99.9;;;;;;;;;
2021/06/04 00:47:18;;;;;;;19.13;16.02;;;19.7;99.9;;;;;;;;;
2021/06/04 00:47:33;;;;;;;18.65;16.75;;;19.7;99.9;;;;;;;;;
2021/06/04 00:47:43;;;;;;;18.65;16.75;;;19.7;99.9;;;;;;;;;
2021/06/04 00:47:54;;;;;;;18.65;16.75;;;19.7;99.9;;;;;;;;;
2021/06/04 00:48:01;;;;;;;18.65;16.75;;;19.7;99.9;;;;;;;;;
2021/06/04 00:48:09;;;;;;;18.65;16.75;;;19.7;99.9;;;;;;;;;
2021/06/04 00:48:19;;;;;;;18.65;16.75;;;19.7;99.9;;;;;;;;;
2021/06/04 00:48:30;;;;;;;18.77;16.75;;;19.7;99.9;;;;;;;;;
2021/06/04 00:48:45;;;;;;;18.77;16.75;;;19.7;99.9;;;;;;;;;
2021/06/04 00:48:55;;;;;;;18.77;16.75;;;19.7;99.9;;;;;;;;;
2021/06/04 00:49:02;;;;;;;18.77;16.75;;;19.7;99.9;;;;;;;;;
2021/06/04 00:49:05;;;;;;;18.77;16.75;;;19.7;99.9;;;;;;;;;
2021/06/04 00:49:17;;;;;;;18.77;16.75;;;19.7;99.9;;;;;;;;;
2021/06/04 00:49:31;;;;;;;18.8;16.83;;;19.7;99.9;;;;;;;;;
2021/06/04 00:49:46;;;;;;;18.8;16.83;;;19.7;99.9;;;;;;;;;
2021/06/04 00:49:57;;;;;;;18.8;16.83;;;19.7;99.9;;;;;;;;;
2021/06/04 00:50:01;;;;;;;18.8;16.83;;;19.7;99.9;;;;;;;;;
2021/06/04 00:50:07;;;;;;;18.8;16.83;;;19.7;99.9;;;;;;;;;
2021/06/04 00:50:12;;;;;;;18.8;16.83;;;19.7;99.9;;;;;;;;;
2021/06/04 00:50:33;;;;;;;19.2;17.2;;;19.6;99.9;;;;;;;;;
2021/06/04 00:50:43;;;;;;;19.2;17.2;;;19.6;99.9;;;;;;;;;
2021/06/04 00:50:58;;;;;;;19.2;17.2;;;19.6;99.9;;;;;;;;;
2021/06/04 00:51:02;;;;;;;19.2;17.2;;;19.6;99.9;;;;;;;;;
2021/06/04 00:51:08;;;;;;;19.2;17.2;;;19.6;99.9;;;;;;;;;
2021/06/04 00:51:13;;;;;;;19.2;17.2;;;19.6;99.9;;;;;;;;;
2021/06/04 00:51:29;;;;;;;21.52;17.6;;;19.6;99.9;;;;;;;;;
2021/06/04 00:51:44;;;;;;;21.52;17.6;;;19.6;99.9;;;;;;;;;
2021/06/04 00:52:00;;;;;;;21.52;17.6;;;19.6;99.9;;;;;;;;;
2021/06/04 00:52:02;;;;;;;21.52;17.6;;;19.6;99.9;;;;;;;;;
2021/06/04 00:52:10;;;;;;;21.52;17.6;;;19.6;99.9;;;;;;;;;
2021/06/04 00:52:15;;;;;;;21.52;17.6;;;19.6;99.9;;;;;;;;;
2021/06/04 00:52:26;;;;;;;18.35;16.23;;;19.6;99.9;;;;;;;;;
2021/06/04 00:52:51;;;;;;;18.35;16.23;;;19.6;99.9;;;;;;;;;
2021/06/04 00:52:56;;;;;;;18.35;16.23;;;19.6;99.9;;;;;;;;;
2021/06/04 00:53:02;;;;;;;18.35;16.23;;;19.6;99.9;;;;;;;;;
2021/06/04 00:53:11;;;;;;;18.35;16.23;;;19.6;99.9;;;;;;;;;
2021/06/04 00:53:16;;;;;;;18.35;16.23;;;19.6;99.9;;;;;;;;;
2021/06/04 00:53:27;;;;;;;19.42;17.33;;;19.6;99.9;;;;;;;;;
2021/06/04 00:53:42;;;;;;;19.42;17.33;;;19.6;99.9;;;;;;;;;
2021/06/04 00:53:57;;;;;;;19.42;17.33;;;19.6;99.9;;;;;;;;;
2021/06/04 00:54:02;;;;;;;19.42;17.33;;;19.6;99.9;;;;;;;;;
2021/06/04 00:54:13;;;;;;;19.42;17.33;;;19.6;99.9;;;;;;;;;
2021/06/04 00:54:18;;;;;;;19.42;17.33;;;19.6;99.9;;;;;;;;;
2021/06/04 00:54:28;;;;;;;18.45;16;;;19.7;99.9;;;;;;;;;
2021/06/04 00:54:38;;;;;;;18.45;16;;;19.7;99.9;;;;;;;;;
2021/06/04 00:55:02;;;;;;;18.45;16;;;19.7;99.9;;;;;;;;;
2021/06/04 00:55:04;;;;;;;18.45;16;;;19.7;99.9;;;;;;;;;
2021/06/04 00:55:09;;;;;;;18.45;16;;;19.7;99.9;;;;;;;;;
2021/06/04 00:55:16;;;;;;;18.45;16;;;19.7;99.9;;;;;;;;;
2021/06/04 00:55:30;;;;;;;19.95;16.98;;;19.6;99.9;;;;;;;;;
2021/06/04 00:55:40;;;;;;;19.95;16.98;;;19.6;99.9;;;;;;;;;
2021/06/04 00:55:55;;;;;;;19.95;16.98;;;19.6;99.9;;;;;;;;;
2021/06/04 00:56:02;;;;;;;19.95;16.98;;;19.6;99.9;;;;;;;;;
2021/06/04 00:56:10;;;;;;;19.95;16.98;;;19.6;99.9;;;;;;;;;
2021/06/04 00:56:15;;;;;;;19.95;16.98;;;19.6;99.9;;;;;;;;;
2021/06/04 00:56:31;;;;;;;19.58;17.52;;;19.6;99.9;;;;;;;;;
2021/06/04 00:56:41;;;;;;;19.58;17.52;;;19.6;99.9;;;;;;;;;
2021/06/04 00:56:51;;;;;;;19.58;17.52;;;19.6;99.9;;;;;;;;;
2021/06/04 00:57:01;;;;;;;19.58;17.52;;;19.6;99.9;;;;;;;;;
2021/06/04 00:57:17;;;;;;;19.58;17.52;;;19.6;99.9;;;;;;;;;
2021/06/04 00:57:17;;;;;;;19.58;17.52;;;19.6;99.9;;;;;;;;;
2021/06/04 00:57:27;;;;;;;21.42;16.83;;;19.6;99.9;;;;;;;;;
2021/06/04 00:57:43;;;;;;;21.42;16.83;;;19.6;99.9;;;;;;;;;
2021/06/04 00:57:53;;;;;;;21.42;16.83;;;19.6;99.9;;;;;;;;;
2021/06/04 00:58:02;;;;;;;21.42;16.83;;;19.6;99.9;;;;;;;;;
2021/06/04 00:58:08;;;;;;;21.42;16.83;;;19.6;99.9;;;;;;;;;
2021/06/04 00:58:13;;;;;;;21.42;16.83;;;19.6;99.9;;;;;;;;;
2021/06/04 00:58:29;;;;;;;19.1;17.08;;;19.5;99.9;;;;;;;;;
2021/06/04 00:58:44;;;;;;;19.1;17.08;;;19.5;99.9;;;;;;;;;
2021/06/04 00:58:54;;;;;;;19.1;17.08;;;19.5;99.9;;;;;;;;;
2021/06/04 00:59:02;;;;;;;19.1;17.08;;;19.5;99.9;;;;;;;;;
2021/06/04 00:59:05;;;;;;;19.1;17.08;;;19.5;99.9;;;;;;;;;
2021/06/04 00:59:15;;;;;;;19.1;17.08;;;19.5;99.9;;;;;;;;;
2021/06/04 00:59:35;;;;;;;20.52;16.8;;;19.5;99.9;;;;;;;;;
2021/06/04 00:59:41;;;;;;;20.52;16.8;;;19.5;99.9;;;;;;;;;
2021/06/04 01:00:01;;;;;;;20.52;16.8;;;19.5;99.9;;;;;;;;;
2021/06/04 01:00:02;;;;;;;20.52;16.8;;;19.5;99.9;;;;;;;;;
2021/06/04 01:00:06;;;;;;;20.52;16.8;;;19.5;99.9;;;;;;;;;
2021/06/04 01:00:18;;;;;;;20.52;16.8;;;19.5;99.9;;;;;;;;;
2021/06/04 01:00:26;;;;;;;20.2;18.17;;;19.6;99.9;;;;;;;;;
2021/06/04 01:00:42;;;;;;;20.2;18.17;;;19.6;99.9;;;;;;;;;
2021/06/04 01:00:57;;;;;;;20.2;18.17;;;19.6;99.9;;;;;;;;;
2021/06/04 01:01:02;;;;;;;20.2;18.17;;;19.6;99.9;;;;;;;;;
2021/06/04 01:01:07;;;;;;;20.2;18.17;;;19.6;99.9;;;;;;;;;
2021/06/04 01:01:18;;;;;;;20.2;18.17;;;19.6;99.9;;;;;;;;;
2021/06/04 01:01:29;;;;;;;22.58;18.55;;;19.6;99.9;;;;;;;;;
2021/06/04 01:01:48;;;;;;;22.58;18.55;;;19.6;99.9;;;;;;;;;
2021/06/04 01:01:54;;;;;;;22.58;18.55;;;19.6;99.9;;;;;;;;;
2021/06/04 01:02:02;;;;;;;22.58;18.55;;;19.6;99.9;;;;;;;;;
2021/06/04 01:02:19;;;;;;;22.58;18.55;;;19.6;99.9;;;;;;;;;
2021/06/04 01:02:19;;;;;;;22.58;18.55;;;19.6;99.9;;;;;;;;;
2021/06/04 01:02:34;;;;;;;19.63;17.6;;;19.6;99.9;;;;;;;;;
2021/06/04 01:02:40;;;;;;;19.63;17.6;;;19.6;99.9;;;;;;;;;
2021/06/04 01:02:55;;;;;;;19.63;17.6;;;19.6;99.9;;;;;;;;;
2021/06/04 01:03:02;;;;;;;19.63;17.6;;;19.6;99.9;;;;;;;;;
2021/06/04 01:03:10;;;;;;;19.63;17.6;;;19.6;99.9;;;;;;;;;
2021/06/04 01:03:15;;;;;;;19.63;17.6;;;19.6;99.9;;;;;;;;;
2021/06/04 01:03:31;;;;;;;22.45;18.23;;;19.6;99.9;;;;;;;;;
2021/06/04 01:03:41;;;;;;;22.45;18.23;;;19.6;99.9;;;;;;;;;
2021/06/04 01:04:01;;;;;;;22.45;18.23;;;19.6;99.9;;;;;;;;;
2021/06/04 01:04:02;;;;;;;22.45;18.23;;;19.6;99.9;;;;;;;;;
2021/06/04 01:04:07;;;;;;;22.45;18.23;;;19.6;99.9;;;;;;;;;
2021/06/04 01:04:17;;;;;;;22.45;18.23;;;19.6;99.9;;;;;;;;;
2021/06/04 01:04:32;;;;;;;20;17.83;;;19.6;99.9;;;;;;;;;
2021/06/04 01:04:48;;;;;;;20;17.83;;;19.6;99.9;;;;;;;;;
2021/06/04 01:04:53;;;;;;;20;17.83;;;19.6;99.9;;;;;;;;;
2021/06/04 01:05:02;;;;;;;20;17.83;;;19.6;99.9;;;;;;;;;
2021/06/04 01:05:08;;;;;;;20;17.83;;;19.6;99.9;;;;;;;;;
2021/06/04 01:05:13;;;;;;;20;17.83;;;19.6;99.9;;;;;;;;;
2021/06/04 01:05:29;;;;;;;20.17;17.65;;;19.6;99.9;;;;;;;;;
2021/06/04 01:05:44;;;;;;;20.17;17.65;;;19.6;99.9;;;;;;;;;
2021/06/04 01:05:59;;;;;;;20.17;17.65;;;19.6;99.9;;;;;;;;;
2021/06/04 01:06:02;;;;;;;20.17;17.65;;;19.6;99.9;;;;;;;;;
2021/06/04 01:06:15;;;;;;;20.17;17.65;;;19.6;99.9;;;;;;;;;
2021/06/04 01:06:20;;;;;;;20.17;17.65;;;19.6;99.9;;;;;;;;;
2021/06/04 01:06:30;;;;;;;21;17.95;;;19.6;99.9;;;;;;;;;
2021/06/04 01:06:45;;;;;;;21;17.95;;;19.6;99.9;;;;;;;;;
2021/06/04 01:07:01;;;;;;;21;17.95;;;19.6;99.9;;;;;;;;;
2021/06/04 01:07:02;;;;;;;21;17.95;;;19.6;99.9;;;;;;;;;
2021/06/04 01:07:06;;;;;;;21;17.95;;;19.6;99.9;;;;;;;;;
2021/06/04 01:07:16;;;;;;;21;17.95;;;19.6;99.9;;;;;;;;;
2021/06/04 01:07:26;;;;;;;21.8;17.23;;;19.7;99.9;;;;;;;;;
2021/06/04 01:07:42;;;;;;;21.8;17.23;;;19.7;99.9;;;;;;;;;
2021/06/04 01:07:57;;;;;;;21.8;17.23;;;19.7;99.9;;;;;;;;;
2021/06/04 01:08:02;;;;;;;21.8;17.23;;;19.7;99.9;;;;;;;;;
2021/06/04 01:08:17;;;;;;;21.8;17.23;;;19.7;99.9;;;;;;;;;
2021/06/04 01:08:18;;;;;;;21.8;17.23;;;19.7;99.9;;;;;;;;;
2021/06/04 01:08:38;;;;;;;20.05;16.27;;;19.7;99.9;;;;;;;;;
2021/06/04 01:08:43;;;;;;;20.05;16.27;;;19.7;99.9;;;;;;;;;
2021/06/04 01:09:02;;;;;;;20.05;16.27;;;19.7;99.9;;;;;;;;;
2021/06/04 01:09:04;;;;;;;20.05;16.27;;;19.7;99.9;;;;;;;;;
2021/06/04 01:09:19;;;;;;;20.05;16.27;;;19.7;99.9;;;;;;;;;
2021/06/04 01:09:19;;;;;;;20.05;16.27;;;19.7;99.9;;;;;;;;;
2021/06/04 01:09:29;;;;;;;18.92;16.65;;;19.8;99.9;;;;;;;;;
2021/06/04 01:09:45;;;;;;;18.92;16.65;;;19.8;99.9;;;;;;;;;
2021/06/04 01:10:00;;;;;;;18.92;16.65;;;19.8;99.9;;;;;;;;;
2021/06/04 01:10:02;;;;;;;18.92;16.65;;;19.8;99.9;;;;;;;;;
2021/06/04 01:10:20;;;;;;;18.92;16.65;;;19.8;99.9;;;;;;;;;
2021/06/04 01:10:25;;;;;;;18.92;16.65;;;19.8;99.9;;;;;;;;;
2021/06/04 01:10:41;;;;;;;18.73;16.08;;;19.8;99.9;;;;;;;;;
2021/06/04 01:11:01;;;;;;;18.73;16.08;;;19.8;99.9;;;;;;;;;
2021/06/04 01:11:02;;;;;;;18.73;16.08;;;19.8;99.9;;;;;;;;;
2021/06/04 01:11:06;;;;;;;18.73;16.08;;;19.8;99.9;;;;;;;;;
2021/06/04 01:11:27;;;;;;;18.6;15.88;;;19.8;99.9;;;;;;;;;
2021/06/04 01:11:27;;;;;;;18.6;15.88;;;19.8;99.9;;;;;;;;;
2021/06/04 01:11:58;;;;;;;18.6;15.88;;;19.8;99.9;;;;;;;;;
2021/06/04 01:11:58;;;;;;;18.6;15.88;;;19.8;99.9;;;;;;;;;
2021/06/04 01:12:02;;;;;;;18.6;15.88;;;19.8;99.9;;;;;;;;;
2021/06/04 01:12:08;;;;;;;18.6;15.88;;;19.8;99.9;;;;;;;;;
2021/06/04 01:12:18;;;;;;;18.6;15.88;;;19.8;99.9;;;;;;;;;
2021/06/04 01:12:18;;;;;;;18.6;15.88;;;19.8;99.9;;;;;;;;;
2021/06/04 01:12:44;;;;;;;22.65;16.6;;;19.8;99.9;;;;;;;;;
2021/06/04 01:12:59;;;;;;;22.65;16.6;;;19.8;99.9;;;;;;;;;
2021/06/04 01:13:02;;;;;;;22.65;16.6;;;19.8;99.9;;;;;;;;;
2021/06/04 01:13:20;;;;;;;22.65;16.6;;;19.8;99.9;;;;;;;;;
2021/06/04 01:13:25;;;;;;;22.65;16.6;;;19.8;99.9;;;;;;;;;
2021/06/04 01:13:25;;;;;;;22.65;16.6;;;19.8;99.9;;;;;;;;;
2021/06/04 01:13:45;;;;;;;19.52;16;;;19.9;99.9;;;;;;;;;
2021/06/04 01:14:02;;;;;;;19.52;16;;;19.9;99.9;;;;;;;;;
2021/06/04 01:14:21;;;;;;;19.52;16;;;19.9;99.9;;;;;;;;;